Troy, VA

6:03 AM EDT on September 30, 2016 (GMT -0400)
Mountain Brook | | Change Station

Elev 517 ft 38.00 °N, 78.24 °W | Updated 2 minutes ago

Rain
Rain
63.5 °F
Feels Like 63.5 °F
N
1.0
Wind Variable Wind from ESE
Gusts 4.0 mph

Today
High -- | Low -- °F
--% Chance of Precip.
Yesterday
High -- | Low -- °F
Precip. -- in
Pressure 30.08 in
Visibility 2.5 miles
Clouds Overcast 400 ft
Dew Point 61 °F
Humidity 93%
Rainfall 0.05 in
Snow Depth Not available.
7:08 AM 6:56 PM
Waning Crescent, 0% visible
METAR KLKU 300955Z AUTO 04006KT 2 1/2SM BR OVC004 19/19 A3008 RMK AO2
Pressure 30.08 in
Visibility 2.5 miles
Clouds Overcast 400 ft
Dew Point 61 °F
Humidity 93%
Rainfall 0.05 in
Snow Depth Not available.
7:08 AM 6:56 PM
Waning Crescent, 0% visible
METAR KLKU 300955Z AUTO 04006KT 2 1/2SM BR OVC004 19/19 A3008 RMK AO2

10-Day Weather Forecast

Almanac

Astronomy

Sep. 30, 2016 Rise Set
Actual Time
Civil Twilight
Nautical Twilight
Astronomical Twilight
Moon
Length of Visible Light
Length of Day
Tomorrow will be .
, % of the Moon is Illuminated

Today's Extremes

State Highs State Lows

Community

WunderPhotos

Upload Photos

1,942,687 photos uploaded!

WunderBlog® & News

Nearby

Air Quality

  Air Quality AQ Index Pollutant
Not available.

Snow Depth

Station Depth Elevation

Earthquake Activity

City Distance Mag. Time & Date
Minimum magnitude displayed is 2.5.

Coastal Water Temperatures

Place Temperature

Stations

Nearby Weather Stations

Station Location Temp. Windchill Dew Point Humidity Wind Precip. Elev Updated Type
                   

Watches & Warnings

There are currently no watches in effect.